Terminal Aerodrome Forecast
Issued by NWS

Home | Current Version | Previous Version | Text Only | Print | Product List | Glossary Off
Versions: 1 2 3 4 5 6 7 8 9 10 11 12 13 14 15 16 17 18 19 20 21 22 23 24 25 26 27 28 29 30 31 32 33 34 35 36 37 38 39 40 41 42

000
FTUS45 KGGW 291500 AAB
TAFOLF
TAF AMD
KOLF 291540Z 2916/3012 VRB04KT 6SM BR SCT015
      TEMPO 2916/2918 1SM BR VV002
     FM291800 12010KT P6SM SCT250
     FM300100 VRB06KT P6SM SCT250=

USA.gov is the U.S. government's official web portal to all federal, state and local government web resources and services.